createdAt,value
2023-03-29T00:01:36.671Z,5.20
2023-03-29T00:04:06.458Z,4.63
2023-03-29T00:06:33.949Z,5.33
2023-03-29T00:09:01.614Z,4.33
2023-03-29T00:11:27.974Z,4.20
2023-03-29T00:13:54.363Z,4.47
2023-03-29T00:16:21.085Z,4.73
2023-03-29T00:18:47.822Z,5.57
2023-03-29T00:21:14.241Z,4.50
2023-03-29T00:23:40.687Z,5.17
2023-03-29T00:26:08.128Z,5.30
2023-03-29T00:28:34.985Z,5.33
2023-03-29T00:31:10.238Z,4.60
2023-03-29T00:33:37.365Z,4.67
2023-03-29T00:36:04.549Z,4.90
2023-03-29T00:38:31.979Z,4.80
2023-03-29T00:40:58.749Z,5.17
2023-03-29T00:43:25.749Z,4.63
2023-03-29T00:45:52.977Z,6.13
2023-03-29T00:48:26.229Z,5.00
2023-03-29T00:51:09.862Z,4.50
2023-03-29T00:53:42.534Z,5.93
2023-03-29T00:56:14.044Z,5.80
2023-03-29T00:58:47.728Z,4.77
2023-03-29T01:01:25.743Z,4.53
2023-03-29T01:03:59.551Z,5.43
2023-03-29T01:06:29.387Z,4.77
2023-03-29T01:09:02.976Z,5.77
2023-03-29T01:11:39.204Z,5.43
2023-03-29T01:14:12.055Z,5.80
2023-03-29T01:16:39.333Z,5.87
2023-03-29T01:19:10.170Z,5.13
2023-03-29T01:21:45.973Z,5.77
2023-03-29T01:24:24.678Z,5.70
2023-03-29T01:27:13.865Z,5.70
2023-03-29T01:30:00.269Z,5.07
2023-03-29T01:32:36.427Z,5.17
2023-03-29T01:35:15.784Z,5.37
2023-03-29T01:37:49.255Z,5.57
2023-03-29T01:40:15.834Z,6.00
2023-03-29T01:43:21.755Z,5.47
2023-03-29T01:46:07.939Z,6.47
2023-03-29T01:49:01.962Z,5.63
2023-03-29T01:51:42.166Z,5.80
2023-03-29T01:54:15.160Z,4.47
2023-03-29T01:56:44.934Z,5.07
2023-03-29T01:59:15.164Z,5.07
2023-03-29T02:01:49.079Z,5.53
2023-03-29T02:04:20.834Z,4.80
2023-03-29T02:06:50.324Z,4.70
2023-03-29T02:09:17.265Z,4.80
2023-03-29T02:11:45.101Z,4.70
2023-03-29T02:14:11.449Z,4.80
2023-03-29T02:16:39.030Z,6.80
2023-03-29T02:19:07.840Z,5.60
2023-03-29T02:21:43.257Z,5.23
2023-03-29T02:24:13.383Z,5.03
2023-03-29T02:26:39.930Z,5.63
2023-03-29T02:29:06.313Z,4.67
2023-03-29T02:31:33.097Z,4.53
2023-03-29T02:34:07.621Z,4.60
2023-03-29T02:36:44.048Z,4.40
2023-03-29T02:39:15.623Z,4.97
2023-03-29T02:41:45.339Z,4.07
2023-03-29T02:44:14.825Z,5.53
2023-03-29T02:46:43.999Z,4.20
2023-03-29T02:49:12.012Z,4.00
2023-03-29T02:51:38.514Z,4.47
2023-03-29T02:54:13.677Z,4.60
2023-03-29T02:56:54.764Z,4.87
2023-03-29T02:59:22.509Z,4.67
2023-03-29T03:01:49.494Z,5.00
2023-03-29T03:04:18.257Z,4.00
2023-03-29T03:06:44.599Z,4.30
2023-03-29T03:09:10.957Z,4.23
2023-03-29T03:11:40.258Z,3.50
2023-03-29T03:14:07.425Z,4.13
2023-03-29T03:16:34.760Z,3.13
2023-03-29T03:19:01.850Z,3.53
2023-03-29T03:21:28.192Z,4.10
2023-03-29T03:23:55.550Z,4.13
2023-03-29T03:26:24.708Z,4.17
2023-03-29T03:28:51.100Z,4.93
2023-03-29T03:31:35.834Z,4.30
2023-03-29T03:34:34.742Z,4.93
2023-03-29T03:37:01.752Z,4.23
2023-03-29T03:39:30.322Z,4.30
2023-03-29T03:41:56.905Z,4.70
2023-03-29T03:44:23.406Z,3.90
2023-03-29T03:47:06.615Z,4.33
2023-03-29T03:49:34.015Z,4.77
2023-03-29T03:52:00.934Z,5.13
2023-03-29T03:54:27.469Z,4.40
2023-03-29T03:57:17.351Z,4.47
2023-03-29T03:59:48.932Z,4.00
2023-03-29T04:02:20.530Z,4.17
2023-03-29T04:04:47.557Z,4.90
2023-03-29T04:07:18.249Z,4.13
2023-03-29T04:10:08.595Z,5.13
2023-03-29T04:12:49.245Z,4.90
2023-03-29T04:15:17.688Z,6.63
2023-03-29T04:17:50.750Z,5.50
2023-03-29T04:20:20.626Z,5.93
2023-03-29T04:22:47.089Z,5.57
2023-03-29T04:25:13.521Z,4.53
2023-03-29T04:27:50.662Z,5.40
2023-03-29T04:30:28.438Z,5.27
2023-03-29T04:33:06.792Z,6.83
2023-03-29T04:35:35.040Z,5.63
2023-03-29T04:38:04.195Z,6.13
2023-03-29T04:40:30.753Z,5.50
2023-03-29T04:43:07.763Z,7.07
2023-03-29T04:45:36.759Z,7.87
2023-03-29T04:48:13.928Z,6.57
2023-03-29T04:50:46.648Z,6.17
2023-03-29T04:53:14.435Z,5.90
2023-03-29T04:55:43.140Z,5.90
2023-03-29T04:58:14.250Z,5.50
2023-03-29T05:00:42.859Z,5.30
2023-03-29T05:03:23.074Z,4.87
2023-03-29T05:05:55.471Z,6.30
2023-03-29T05:08:21.927Z,6.60
2023-03-29T05:11:10.744Z,5.60
2023-03-29T05:13:37.712Z,6.03
2023-03-29T05:16:05.193Z,6.00
2023-03-29T05:18:31.752Z,7.27
2023-03-29T05:20:59.394Z,7.50
2023-03-29T05:23:27.478Z,8.40
2023-03-29T05:26:15.120Z,6.83
2023-03-29T05:28:45.935Z,6.93
2023-03-29T05:31:14.141Z,8.50
2023-03-29T05:33:42.901Z,7.37
2023-03-29T05:36:13.974Z,7.17
2023-03-29T05:38:46.639Z,7.10
2023-03-29T05:41:15.676Z,8.10
2023-03-29T05:44:00.623Z,8.47
2023-03-29T05:46:28.242Z,8.73
2023-03-29T05:48:57.168Z,8.63
2023-03-29T05:51:36.807Z,9.63
2023-03-29T05:54:04.637Z,9.10
2023-03-29T05:56:31.047Z,9.23
2023-03-29T05:58:58.459Z,8.90
2023-03-29T06:01:25.732Z,10.13
2023-03-29T06:04:00.920Z,9.90
2023-03-29T06:06:36.056Z,11.50
2023-03-29T06:09:03.416Z,10.20
2023-03-29T06:11:34.821Z,10.73
2023-03-29T06:14:20.824Z,10.27
2023-03-29T06:16:53.294Z,10.60
2023-03-29T06:19:19.764Z,9.87
2023-03-29T06:21:47.181Z,9.67
2023-03-29T06:24:17.843Z,9.50
2023-03-29T06:26:50.331Z,9.77
2023-03-29T06:29:16.922Z,10.20
2023-03-29T06:31:45.963Z,10.83
2023-03-29T06:34:30.909Z,10.37
2023-03-29T06:37:17.864Z,10.50
2023-03-29T06:39:44.415Z,10.50
2023-03-29T06:42:21.900Z,11.47
2023-03-29T06:45:07.536Z,11.53
2023-03-29T06:47:36.025Z,11.30
2023-03-29T06:50:02.436Z,9.93
2023-03-29T06:52:34.056Z,10.70
2023-03-29T06:55:01.752Z,11.63
2023-03-29T06:57:28.521Z,10.07
2023-03-29T06:59:55.193Z,11.03
2023-03-29T07:02:25.067Z,11.17
2023-03-29T07:04:56.033Z,9.47
2023-03-29T07:07:33.130Z,11.23
2023-03-29T07:10:12.729Z,10.87
2023-03-29T07:13:13.136Z,13.13
2023-03-29T07:15:41.387Z,11.73
2023-03-29T07:18:18.389Z,11.40
2023-03-29T07:20:45.298Z,11.30
2023-03-29T07:23:11.871Z,9.70
2023-03-29T07:25:38.401Z,9.47
2023-03-29T07:28:06.077Z,9.03
2023-03-29T07:30:33.264Z,9.30
2023-03-29T07:33:13.188Z,7.93
2023-03-29T07:35:47.627Z,8.73
2023-03-29T07:38:15.492Z,8.17
2023-03-29T07:40:46.964Z,7.43
2023-03-29T07:43:42.757Z,6.63
2023-03-29T07:46:11.044Z,6.77
2023-03-29T07:48:38.668Z,5.73
2023-03-29T07:51:07.770Z,6.33
2023-03-29T07:53:42.298Z,4.90
2023-03-29T07:56:24.751Z,5.77
2023-03-29T07:59:02.133Z,5.10
2023-03-29T08:01:29.160Z,6.27
2023-03-29T08:04:11.036Z,5.70
2023-03-29T08:06:56.076Z,5.50
2023-03-29T08:09:29.115Z,5.57
2023-03-29T08:11:55.835Z,5.60
2023-03-29T08:14:28.803Z,6.97
2023-03-29T08:17:06.175Z,5.50
2023-03-29T08:19:38.741Z,7.13
2023-03-29T08:22:07.302Z,7.83
2023-03-29T08:24:54.256Z,6.77
2023-03-29T08:27:23.308Z,6.80
2023-03-29T08:29:50.020Z,5.50
2023-03-29T08:32:17.149Z,5.33
2023-03-29T08:34:43.758Z,5.33
2023-03-29T08:37:26.774Z,4.93
2023-03-29T08:39:55.420Z,4.27
2023-03-29T08:42:33.392Z,6.07
2023-03-29T08:45:44.878Z,4.83
2023-03-29T08:48:29.584Z,5.37
2023-03-29T08:51:02.390Z,5.30
2023-03-29T08:53:53.657Z,5.13
2023-03-29T08:56:28.751Z,5.27
2023-03-29T08:59:29.838Z,7.33
2023-03-29T09:02:00.426Z,5.23
2023-03-29T09:04:31.558Z,6.10
2023-03-29T09:07:11.720Z,6.30
2023-03-29T09:09:42.678Z,10.67
2023-03-29T09:13:07.048Z,8.47
2023-03-29T09:15:49.211Z,9.30
2023-03-29T09:18:52.111Z,7.57
2023-03-29T09:21:31.508Z,8.87
2023-03-29T09:24:07.116Z,8.50
2023-03-29T09:26:58.967Z,8.90
2023-03-29T09:29:47.212Z,8.73
2023-03-29T09:32:22.334Z,7.30
2023-03-29T09:35:18.063Z,6.73
2023-03-29T09:37:47.418Z,6.63
2023-03-29T09:40:32.118Z,7.33
2023-03-29T09:43:31.478Z,9.70
2023-03-29T09:46:04.126Z,6.57
2023-03-29T09:48:37.697Z,7.87
2023-03-29T09:51:06.975Z,8.47
2023-03-29T09:53:33.605Z,6.90
2023-03-29T09:56:15.891Z,7.10
2023-03-29T09:58:58.990Z,5.93
2023-03-29T10:01:36.922Z,7.50
2023-03-29T10:04:07.910Z,5.97
2023-03-29T10:06:35.457Z,6.60
2023-03-29T10:09:02.765Z,6.80
2023-03-29T10:11:38.239Z,6.03
2023-03-29T10:14:14.088Z,5.93
2023-03-29T10:16:45.869Z,5.60
2023-03-29T10:19:36.662Z,5.10
2023-03-29T10:22:13.470Z,6.20
2023-03-29T10:24:39.893Z,5.93
2023-03-29T10:27:11.508Z,5.73
2023-03-29T10:29:42.121Z,5.80
2023-03-29T10:32:15.782Z,5.63
2023-03-29T10:34:43.126Z,5.90
2023-03-29T10:37:11.269Z,6.97
2023-03-29T10:39:39.519Z,6.23
2023-03-29T10:42:08.295Z,5.47
2023-03-29T10:44:36.478Z,6.23
2023-03-29T10:47:17.463Z,5.50
2023-03-29T10:49:47.817Z,6.00
2023-03-29T10:52:15.328Z,5.47
2023-03-29T10:54:42.032Z,6.37
2023-03-29T10:57:11.049Z,6.13
2023-03-29T11:00:01.240Z,5.10
2023-03-29T11:03:14.418Z,4.90
2023-03-29T11:05:52.074Z,5.13
2023-03-29T11:08:44.878Z,4.57
2023-03-29T11:11:33.121Z,5.67
2023-03-29T11:14:22.983Z,5.93
2023-03-29T11:17:27.314Z,7.40
2023-03-29T11:20:27.674Z,6.03
2023-03-29T11:23:13.730Z,5.87
2023-03-29T11:26:11.847Z,5.87
2023-03-29T11:28:57.680Z,5.27
2023-03-29T11:31:39.253Z,5.33
2023-03-29T11:34:32.459Z,5.40
2023-03-29T11:37:21.252Z,6.47
2023-03-29T11:40:12.369Z,6.60
2023-03-29T11:42:45.021Z,8.47
2023-03-29T11:45:27.152Z,6.13
2023-03-29T11:47:55.389Z,6.33
2023-03-29T11:50:50.409Z,7.50
2023-03-29T11:53:25.376Z,7.20
2023-03-29T11:55:54.963Z,5.63
2023-03-29T11:58:31.200Z,7.00
2023-03-29T12:01:04.136Z,5.80
2023-03-29T12:03:41.094Z,5.67
2023-03-29T12:06:19.705Z,7.00
2023-03-29T12:08:55.169Z,6.63
2023-03-29T12:11:30.988Z,6.40
2023-03-29T12:14:04.813Z,5.40
2023-03-29T12:16:41.664Z,5.70
2023-03-29T12:19:19.524Z,6.20
2023-03-29T12:21:47.353Z,5.30
2023-03-29T12:24:18.290Z,5.53
2023-03-29T12:27:03.049Z,4.83
2023-03-29T12:29:46.544Z,5.93
2023-03-29T12:32:47.999Z,4.77
2023-03-29T12:36:16.274Z,5.13
2023-03-29T12:39:15.178Z,5.40
2023-03-29T12:42:16.917Z,5.10
2023-03-29T12:45:13.564Z,5.03
2023-03-29T12:47:44.672Z,4.73
2023-03-29T12:50:32.633Z,4.77
2023-03-29T12:53:23.900Z,4.77
2023-03-29T12:56:11.453Z,5.83
2023-03-29T12:58:48.689Z,5.70
2023-03-29T13:01:36.973Z,5.23
2023-03-29T13:04:22.310Z,5.63
2023-03-29T13:06:48.617Z,6.17
2023-03-29T13:09:24.139Z,5.40
2023-03-29T13:11:55.965Z,5.03
2023-03-29T13:14:27.290Z,5.23
2023-03-29T13:16:53.704Z,6.07
2023-03-29T13:19:20.065Z,5.93
2023-03-29T13:22:23.674Z,5.87
2023-03-29T13:25:35.401Z,6.43
2023-03-29T13:28:20.255Z,6.10
2023-03-29T13:30:52.257Z,7.93
2023-03-29T13:33:44.367Z,6.20
2023-03-29T13:36:37.536Z,5.70
2023-03-29T13:39:07.324Z,4.60
2023-03-29T13:41:39.389Z,5.33
2023-03-29T13:44:23.035Z,4.77
2023-03-29T13:47:01.317Z,4.50
2023-03-29T13:49:31.573Z,4.30
2023-03-29T13:52:22.646Z,5.30
2023-03-29T13:54:53.714Z,4.60
2023-03-29T13:57:24.478Z,4.60
2023-03-29T13:59:59.287Z,4.97
2023-03-29T14:02:38.495Z,4.87
2023-03-29T14:05:09.649Z,4.40
2023-03-29T14:07:38.996Z,4.53
2023-03-29T14:10:06.362Z,3.90
2023-03-29T14:12:41.710Z,3.80
2023-03-29T14:15:23.743Z,3.40
2023-03-29T14:17:54.759Z,4.17
2023-03-29T14:20:21.518Z,3.57
2023-03-29T14:22:48.171Z,3.67
2023-03-29T14:25:17.983Z,3.40
2023-03-29T14:27:45.032Z,4.03
2023-03-29T14:30:28.152Z,3.47
2023-03-29T14:32:56.410Z,3.97
2023-03-29T14:35:30.587Z,3.53
2023-03-29T14:37:57.120Z,3.20
2023-03-29T14:40:24.343Z,2.90
2023-03-29T14:42:51.078Z,3.57
2023-03-29T14:45:23.081Z,4.90
2023-03-29T14:47:50.324Z,4.13
2023-03-29T14:50:28.397Z,3.53
2023-03-29T14:52:57.653Z,3.20
2023-03-29T14:55:24.806Z,3.50
2023-03-29T14:57:54.452Z,3.13
2023-03-29T15:00:25.917Z,2.97
2023-03-29T15:02:56.849Z,3.20
2023-03-29T15:05:37.448Z,3.73
2023-03-29T15:08:07.153Z,3.30
2023-03-29T15:10:35.408Z,2.90
2023-03-29T15:13:03.970Z,2.83
2023-03-29T15:15:34.556Z,2.70
2023-03-29T15:18:02.638Z,2.97
2023-03-29T15:20:33.405Z,2.90
2023-03-29T15:23:01.751Z,2.40
2023-03-29T15:25:37.031Z,2.77
2023-03-29T15:28:04.106Z,2.23
2023-03-29T15:30:38.117Z,3.53
2023-03-29T15:33:21.751Z,2.30
2023-03-29T15:35:54.553Z,2.10
2023-03-29T15:38:25.403Z,2.03
2023-03-29T15:41:01.221Z,2.20
2023-03-29T15:43:27.622Z,3.40
2023-03-29T15:45:53.963Z,2.30
2023-03-29T15:48:25.579Z,2.80
2023-03-29T15:50:53.022Z,2.57
2023-03-29T15:53:23.338Z,2.20
2023-03-29T15:55:59.806Z,2.53
2023-03-29T15:58:30.493Z,2.43
2023-03-29T16:01:34.067Z,2.73
2023-03-29T16:04:02.483Z,2.57
2023-03-29T16:06:28.850Z,2.97
2023-03-29T16:08:57.228Z,2.40
2023-03-29T16:11:23.922Z,2.30
2023-03-29T16:13:50.830Z,2.20
2023-03-29T16:16:17.322Z,2.30
2023-03-29T16:18:43.704Z,2.27
2023-03-29T16:21:15.491Z,1.90
2023-03-29T16:23:43.008Z,2.40
2023-03-29T16:26:12.355Z,2.50
2023-03-29T16:28:39.156Z,3.50
2023-03-29T16:31:06.070Z,3.27
2023-03-29T16:33:32.871Z,2.50
2023-03-29T16:35:59.328Z,2.97
2023-03-29T16:38:25.787Z,3.73
2023-03-29T16:40:52.490Z,2.77
2023-03-29T16:43:19.446Z,2.60
2023-03-29T16:45:45.982Z,3.17
2023-03-29T16:48:14.275Z,2.77
2023-03-29T16:50:40.903Z,2.93
2023-03-29T16:53:07.249Z,3.00
2023-03-29T16:55:33.970Z,3.20
2023-03-29T16:58:00.294Z,3.07
2023-03-29T17:00:26.617Z,2.80
2023-03-29T17:02:52.943Z,2.90
2023-03-29T17:05:19.486Z,3.40
2023-03-29T17:07:46.731Z,3.10
2023-03-29T17:10:13.133Z,3.53
2023-03-29T17:12:39.856Z,3.57
2023-03-29T17:15:07.602Z,3.33
2023-03-29T17:17:34.849Z,3.00
2023-03-29T17:20:01.418Z,2.90
2023-03-29T17:22:27.799Z,4.97
2023-03-29T17:24:54.110Z,5.43
2023-03-29T17:27:20.986Z,4.50
2023-03-29T17:29:47.481Z,3.20
2023-03-29T17:32:13.924Z,3.73
2023-03-29T17:34:40.764Z,3.20
2023-03-29T17:37:07.539Z,3.40
2023-03-29T17:39:37.193Z,3.20
2023-03-29T17:42:04.534Z,3.03
2023-03-29T17:44:33.019Z,3.43
2023-03-29T17:47:00.416Z,4.50
2023-03-29T17:49:26.903Z,4.13
2023-03-29T17:51:53.236Z,3.60
2023-03-29T17:54:19.544Z,3.80
2023-03-29T17:56:45.940Z,4.30
2023-03-29T17:59:12.305Z,3.97
2023-03-29T18:01:39.247Z,3.93
2023-03-29T18:04:06.245Z,8.33
2023-03-29T18:06:32.788Z,7.93
2023-03-29T18:09:01.286Z,6.23
2023-03-29T18:11:28.288Z,3.87
2023-03-29T18:13:58.660Z,4.10
2023-03-29T18:16:25.478Z,5.00
2023-03-29T18:18:52.067Z,10.37
2023-03-29T18:21:18.750Z,4.47
2023-03-29T18:23:47.030Z,9.13
2023-03-29T18:26:15.308Z,10.23
2023-03-29T18:28:42.006Z,4.77
2023-03-29T18:31:08.570Z,5.57
2023-03-29T18:33:37.524Z,8.40
2023-03-29T18:36:09.945Z,6.10
2023-03-29T18:38:40.314Z,4.90
2023-03-29T18:41:08.329Z,6.10
2023-03-29T18:43:35.786Z,3.70
2023-03-29T18:46:02.481Z,6.00
2023-03-29T18:48:29.702Z,3.97
2023-03-29T18:50:57.674Z,4.10
2023-03-29T18:53:24.175Z,3.67
2023-03-29T18:55:50.572Z,4.40
2023-03-29T18:58:17.673Z,4.13
2023-03-29T19:00:44.486Z,4.00
2023-03-29T19:03:11.194Z,4.33
2023-03-29T19:05:40.979Z,4.83
2023-03-29T19:08:08.380Z,3.87
2023-03-29T19:10:36.515Z,4.03
2023-03-29T19:13:03.160Z,4.00
2023-03-29T19:15:29.599Z,4.33
2023-03-29T19:17:56.221Z,4.13
2023-03-29T19:20:25.199Z,4.00
2023-03-29T19:22:52.665Z,3.43
2023-03-29T19:25:19.517Z,4.50
2023-03-29T19:27:46.331Z,4.40
2023-03-29T19:30:13.270Z,3.27
2023-03-29T19:32:39.630Z,4.60
2023-03-29T19:35:06.801Z,3.77
2023-03-29T19:37:33.115Z,4.33
2023-03-29T19:39:59.432Z,4.93
2023-03-29T19:42:25.797Z,3.97
2023-03-29T19:44:52.116Z,4.40
2023-03-29T19:47:18.450Z,4.17
2023-03-29T19:49:46.330Z,4.07
2023-03-29T19:52:12.743Z,3.80
2023-03-29T19:54:39.199Z,2.77
2023-03-29T19:57:07.162Z,3.40
2023-03-29T19:59:34.025Z,2.63
2023-03-29T20:02:02.099Z,3.30
2023-03-29T20:04:28.754Z,3.93
2023-03-29T20:06:56.430Z,4.67
2023-03-29T20:09:22.889Z,3.83
2023-03-29T20:11:49.295Z,4.30
2023-03-29T20:14:15.960Z,4.20
2023-03-29T20:16:43.464Z,3.30
2023-03-29T20:19:09.927Z,3.90
2023-03-29T20:21:39.139Z,3.30
2023-03-29T20:24:05.946Z,5.13
2023-03-29T20:26:32.307Z,4.57
2023-03-29T20:28:58.626Z,3.67
2023-03-29T20:31:25.103Z,4.83
2023-03-29T20:33:51.622Z,6.47
2023-03-29T20:36:18.471Z,5.23
2023-03-29T20:38:45.548Z,5.10
2023-03-29T20:41:11.887Z,5.20
2023-03-29T20:43:38.382Z,4.83
2023-03-29T20:46:14.156Z,4.07
2023-03-29T20:48:45.880Z,4.87
2023-03-29T20:51:13.952Z,3.70
2023-03-29T20:53:42.817Z,5.87
2023-03-29T20:56:09.194Z,4.40
2023-03-29T20:58:35.708Z,3.93
2023-03-29T21:01:02.319Z,4.80
2023-03-29T21:03:29.084Z,4.30
2023-03-29T21:05:55.510Z,3.87
2023-03-29T21:08:21.858Z,5.17
2023-03-29T21:10:48.159Z,4.80
2023-03-29T21:13:15.159Z,5.47
2023-03-29T21:15:42.041Z,4.10
2023-03-29T21:18:08.748Z,4.97
2023-03-29T21:20:37.432Z,3.63
2023-03-29T21:23:03.803Z,3.70
2023-03-29T21:25:30.157Z,3.37
2023-03-29T21:27:56.625Z,3.30
2023-03-29T21:30:22.956Z,3.30
2023-03-29T21:32:49.350Z,3.77
2023-03-29T21:35:15.864Z,3.23
2023-03-29T21:37:42.189Z,3.83
2023-03-29T21:40:10.427Z,3.13
2023-03-29T21:42:36.762Z,3.27
2023-03-29T21:45:09.459Z,3.03
2023-03-29T21:47:36.036Z,2.67
2023-03-29T21:50:02.389Z,2.90
2023-03-29T21:52:28.733Z,3.10
2023-03-29T21:54:55.105Z,3.00
2023-03-29T21:57:21.498Z,3.27
2023-03-29T21:59:47.850Z,3.37
2023-03-29T22:02:14.263Z,3.30
2023-03-29T22:04:40.637Z,3.30
2023-03-29T22:07:08.214Z,3.00
2023-03-29T22:09:35.234Z,3.13
2023-03-29T22:12:02.728Z,3.23
2023-03-29T22:14:31.323Z,3.10
2023-03-29T22:16:57.775Z,3.27
2023-03-29T22:19:24.176Z,3.27
2023-03-29T22:21:51.268Z,3.33
2023-03-29T22:24:17.590Z,3.20
2023-03-29T22:26:44.862Z,3.70
2023-03-29T22:29:11.465Z,3.27
2023-03-29T22:31:39.127Z,2.93
2023-03-29T22:34:06.000Z,2.90
2023-03-29T22:36:32.985Z,2.90
2023-03-29T22:38:59.338Z,3.10
2023-03-29T22:41:27.496Z,3.23
2023-03-29T22:43:55.955Z,3.10
2023-03-29T22:46:23.440Z,3.33
2023-03-29T22:48:49.822Z,3.50
2023-03-29T22:51:16.601Z,3.33
2023-03-29T22:53:42.994Z,3.47
2023-03-29T22:56:09.573Z,3.00
2023-03-29T22:58:36.854Z,3.13
2023-03-29T23:01:05.037Z,3.63
2023-03-29T23:03:31.883Z,3.60
2023-03-29T23:06:02.158Z,3.40
2023-03-29T23:08:30.687Z,3.30
2023-03-29T23:10:57.653Z,2.93
2023-03-29T23:13:25.825Z,4.00
2023-03-29T23:15:54.619Z,3.50
2023-03-29T23:18:23.426Z,5.23
2023-03-29T23:20:52.189Z,4.10
2023-03-29T23:23:19.829Z,3.07
2023-03-29T23:25:47.886Z,2.87
2023-03-29T23:28:16.737Z,3.27
2023-03-29T23:30:43.368Z,3.13
2023-03-29T23:33:10.384Z,3.60
2023-03-29T23:35:37.511Z,3.67
2023-03-29T23:38:05.602Z,3.47
2023-03-29T23:40:33.059Z,3.10
2023-03-29T23:43:01.338Z,3.90
2023-03-29T23:45:28.020Z,3.90
2023-03-29T23:47:55.181Z,4.47
2023-03-29T23:50:22.457Z,4.00
2023-03-29T23:52:49.407Z,3.40
2023-03-29T23:55:15.996Z,3.83
2023-03-29T23:57:42.602Z,3.87
